sensor_id;sensor_type;location;lat;lon;timestamp;P1;durP1;ratioP1;P2;durP2;ratioP2
74492;SDS011;62978;51.094;-115.362;2022-08-20T00:05:40;14.50;;;8.30;;
74492;SDS011;62978;51.094;-115.362;2022-08-20T00:09:00;12.90;;;7.60;;
74492;SDS011;62978;51.094;-115.362;2022-08-20T00:12:29;14.80;;;8.00;;
74492;SDS011;62978;51.094;-115.362;2022-08-20T00:18:36;13.00;;;8.80;;
74492;SDS011;62978;51.094;-115.362;2022-08-20T00:21:53;16.30;;;10.10;;
74492;SDS011;62978;51.094;-115.362;2022-08-20T00:24:32;12.60;;;8.50;;
74492;SDS011;62978;51.094;-115.362;2022-08-20T00:33:41;14.20;;;8.50;;
74492;SDS011;62978;51.094;-115.362;2022-08-20T00:36:28;13.80;;;9.50;;
74492;SDS011;62978;51.094;-115.362;2022-08-20T00:46:39;17.30;;;15.10;;
74492;SDS011;62978;51.094;-115.362;2022-08-20T00:53:05;17.00;;;8.90;;
74492;SDS011;62978;51.094;-115.362;2022-08-20T00:59:07;12.80;;;7.30;;
74492;SDS011;62978;51.094;-115.362;2022-08-20T01:02:28;12.50;;;6.90;;
74492;SDS011;62978;51.094;-115.362;2022-08-20T01:05:10;12.20;;;7.60;;
74492;SDS011;62978;51.094;-115.362;2022-08-20T01:11:16;10.70;;;6.70;;
74492;SDS011;62978;51.094;-115.362;2022-08-20T01:14:52;11.90;;;6.80;;
74492;SDS011;62978;51.094;-115.362;2022-08-20T01:21:17;9.60;;;6.20;;
74492;SDS011;62978;51.094;-115.362;2022-08-20T01:24:19;12.70;;;7.20;;
74492;SDS011;62978;51.094;-115.362;2022-08-20T01:28:03;9.40;;;6.30;;
74492;SDS011;62978;51.094;-115.362;2022-08-20T01:34:50;10.50;;;6.00;;
74492;SDS011;62978;51.094;-115.362;2022-08-20T01:38:16;10.50;;;6.20;;
74492;SDS011;62978;51.094;-115.362;2022-08-20T01:45:04;8.30;;;5.40;;
74492;SDS011;62978;51.094;-115.362;2022-08-20T01:47:32;11.60;;;6.00;;
74492;SDS011;62978;51.094;-115.362;2022-08-20T01:57:29;11.70;;;6.40;;
74492;SDS011;62978;51.094;-115.362;2022-08-20T02:03:48;13.00;;;8.40;;
74492;SDS011;62978;51.094;-115.362;2022-08-20T02:06:44;14.60;;;7.20;;
74492;SDS011;62978;51.094;-115.362;2022-08-20T02:09:23;11.90;;;7.80;;
74492;SDS011;62978;51.094;-115.362;2022-08-20T02:12:11;18.00;;;9.00;;
74492;SDS011;62978;51.094;-115.362;2022-08-20T02:15:50;14.10;;;9.20;;
74492;SDS011;62978;51.094;-115.362;2022-08-20T02:22:51;13.80;;;9.40;;
74492;SDS011;62978;51.094;-115.362;2022-08-20T02:29:44;14.00;;;8.40;;
74492;SDS011;62978;51.094;-115.362;2022-08-20T02:32:56;14.80;;;9.00;;
74492;SDS011;62978;51.094;-115.362;2022-08-20T02:35:54;12.40;;;9.00;;
74492;SDS011;62978;51.094;-115.362;2022-08-20T02:38:29;13.00;;;8.90;;
74492;SDS011;62978;51.094;-115.362;2022-08-20T02:41:09;12.60;;;9.60;;
74492;SDS011;62978;51.094;-115.362;2022-08-20T02:44:15;14.70;;;9.70;;
74492;SDS011;62978;51.094;-115.362;2022-08-20T02:47:22;13.50;;;9.10;;
74492;SDS011;62978;51.094;-115.362;2022-08-20T02:50:16;13.70;;;8.60;;
74492;SDS011;62978;51.094;-115.362;2022-08-20T02:53:16;12.30;;;8.70;;
74492;SDS011;62978;51.094;-115.362;2022-08-20T02:59:34;14.70;;;10.10;;
74492;SDS011;62978;51.094;-115.362;2022-08-20T03:05:40;17.80;;;10.50;;
74492;SDS011;62978;51.094;-115.362;2022-08-20T03:08:35;13.10;;;9.60;;
74492;SDS011;62978;51.094;-115.362;2022-08-20T03:14:38;13.30;;;9.10;;
74492;SDS011;62978;51.094;-115.362;2022-08-20T03:17:09;14.50;;;9.90;;
74492;SDS011;62978;51.094;-115.362;2022-08-20T03:19:36;16.90;;;10.10;;
74492;SDS011;62978;51.094;-115.362;2022-08-20T03:22:20;17.50;;;9.00;;
74492;SDS011;62978;51.094;-115.362;2022-08-20T03:24:50;14.10;;;9.10;;
74492;SDS011;62978;51.094;-115.362;2022-08-20T03:27:22;15.30;;;9.20;;
74492;SDS011;62978;51.094;-115.362;2022-08-20T03:29:58;14.30;;;9.10;;
74492;SDS011;62978;51.094;-115.362;2022-08-20T03:33:02;15.10;;;10.40;;
74492;SDS011;62978;51.094;-115.362;2022-08-20T03:35:55;14.60;;;9.20;;
74492;SDS011;62978;51.094;-115.362;2022-08-20T03:38:50;13.70;;;9.10;;
74492;SDS011;62978;51.094;-115.362;2022-08-20T03:41:42;14.30;;;9.20;;
74492;SDS011;62978;51.094;-115.362;2022-08-20T03:44:30;14.80;;;9.40;;
74492;SDS011;62978;51.094;-115.362;2022-08-20T03:47:07;14.50;;;10.20;;
74492;SDS011;62978;51.094;-115.362;2022-08-20T03:49:41;14.20;;;10.00;;
74492;SDS011;62978;51.094;-115.362;2022-08-20T03:52:17;13.50;;;9.50;;
74492;SDS011;62978;51.094;-115.362;2022-08-20T03:54:44;15.00;;;10.00;;
74492;SDS011;62978;51.094;-115.362;2022-08-20T03:57:14;13.80;;;8.00;;
74492;SDS011;62978;51.094;-115.362;2022-08-20T03:59:53;12.80;;;10.10;;
74492;SDS011;62978;51.094;-115.362;2022-08-20T04:02:43;13.90;;;8.50;;
74492;SDS011;62978;51.094;-115.362;2022-08-20T04:05:25;14.40;;;9.20;;
74492;SDS011;62978;51.094;-115.362;2022-08-20T04:08:34;15.50;;;9.80;;
74492;SDS011;62978;51.094;-115.362;2022-08-20T04:11:11;14.60;;;10.10;;
74492;SDS011;62978;51.094;-115.362;2022-08-20T04:13:53;16.00;;;10.60;;
74492;SDS011;62978;51.094;-115.362;2022-08-20T04:16:38;16.40;;;10.30;;
74492;SDS011;62978;51.094;-115.362;2022-08-20T04:19:20;15.60;;;10.50;;
74492;SDS011;62978;51.094;-115.362;2022-08-20T04:21:51;15.60;;;9.30;;
74492;SDS011;62978;51.094;-115.362;2022-08-20T04:24:18;14.40;;;9.70;;
74492;SDS011;62978;51.094;-115.362;2022-08-20T04:27:03;15.10;;;9.30;;
74492;SDS011;62978;51.094;-115.362;2022-08-20T04:29:34;14.00;;;9.60;;
74492;SDS011;62978;51.094;-115.362;2022-08-20T04:32:04;17.90;;;11.10;;
74492;SDS011;62978;51.094;-115.362;2022-08-20T04:34:32;16.00;;;9.40;;
74492;SDS011;62978;51.094;-115.362;2022-08-20T04:37:00;15.20;;;9.90;;
74492;SDS011;62978;51.094;-115.362;2022-08-20T04:39:28;14.10;;;10.40;;
74492;SDS011;62978;51.094;-115.362;2022-08-20T04:41:56;14.50;;;9.90;;
74492;SDS011;62978;51.094;-115.362;2022-08-20T04:44:26;19.60;;;10.70;;
74492;SDS011;62978;51.094;-115.362;2022-08-20T04:46:53;12.10;;;8.50;;
74492;SDS011;62978;51.094;-115.362;2022-08-20T04:49:21;13.50;;;8.90;;
74492;SDS011;62978;51.094;-115.362;2022-08-20T04:51:57;12.50;;;10.10;;
74492;SDS011;62978;51.094;-115.362;2022-08-20T04:54:29;12.70;;;9.40;;
74492;SDS011;62978;51.094;-115.362;2022-08-20T04:57:05;13.30;;;9.80;;
74492;SDS011;62978;51.094;-115.362;2022-08-20T04:59:53;16.00;;;9.80;;
74492;SDS011;62978;51.094;-115.362;2022-08-20T05:02:29;14.40;;;9.00;;
74492;SDS011;62978;51.094;-115.362;2022-08-20T05:04:56;13.40;;;9.80;;
74492;SDS011;62978;51.094;-115.362;2022-08-20T05:07:24;12.80;;;9.40;;
74492;SDS011;62978;51.094;-115.362;2022-08-20T05:09:51;13.50;;;9.60;;
74492;SDS011;62978;51.094;-115.362;2022-08-20T05:12:19;12.70;;;8.80;;
74492;SDS011;62978;51.094;-115.362;2022-08-20T05:14:46;13.60;;;9.20;;
74492;SDS011;62978;51.094;-115.362;2022-08-20T05:17:22;14.60;;;9.30;;
74492;SDS011;62978;51.094;-115.362;2022-08-20T05:19:51;12.30;;;9.00;;
74492;SDS011;62978;51.094;-115.362;2022-08-20T05:22:18;12.70;;;9.00;;
74492;SDS011;62978;51.094;-115.362;2022-08-20T05:24:46;14.20;;;8.60;;
74492;SDS011;62978;51.094;-115.362;2022-08-20T05:27:13;12.40;;;8.90;;
74492;SDS011;62978;51.094;-115.362;2022-08-20T05:29:58;12.90;;;9.10;;
74492;SDS011;62978;51.094;-115.362;2022-08-20T05:32:39;12.60;;;8.30;;
74492;SDS011;62978;51.094;-115.362;2022-08-20T05:35:08;12.50;;;9.10;;
74492;SDS011;62978;51.094;-115.362;2022-08-20T05:37:37;13.90;;;9.20;;
74492;SDS011;62978;51.094;-115.362;2022-08-20T05:40:13;13.50;;;8.90;;
74492;SDS011;62978;51.094;-115.362;2022-08-20T05:42:49;13.70;;;10.60;;
74492;SDS011;62978;51.094;-115.362;2022-08-20T05:45:19;14.60;;;9.50;;
74492;SDS011;62978;51.094;-115.362;2022-08-20T05:47:47;13.30;;;9.40;;
74492;SDS011;62978;51.094;-115.362;2022-08-20T05:50:17;13.40;;;9.10;;
74492;SDS011;62978;51.094;-115.362;2022-08-20T05:52:45;13.60;;;9.10;;
74492;SDS011;62978;51.094;-115.362;2022-08-20T05:55:29;13.10;;;9.00;;
74492;SDS011;62978;51.094;-115.362;2022-08-20T05:58:07;14.00;;;9.50;;
74492;SDS011;62978;51.094;-115.362;2022-08-20T06:00:40;15.90;;;9.10;;
74492;SDS011;62978;51.094;-115.362;2022-08-20T06:03:08;12.80;;;9.20;;
74492;SDS011;62978;51.094;-115.362;2022-08-20T06:05:53;14.20;;;9.60;;
74492;SDS011;62978;51.094;-115.362;2022-08-20T06:08:20;13.80;;;9.60;;
74492;SDS011;62978;51.094;-115.362;2022-08-20T06:10:49;15.20;;;9.90;;
74492;SDS011;62978;51.094;-115.362;2022-08-20T06:13:19;14.20;;;9.20;;
74492;SDS011;62978;51.094;-115.362;2022-08-20T06:15:46;14.30;;;9.10;;
74492;SDS011;62978;51.094;-115.362;2022-08-20T06:18:16;14.40;;;9.80;;
74492;SDS011;62978;51.094;-115.362;2022-08-20T06:20:51;12.90;;;9.40;;
74492;SDS011;62978;51.094;-115.362;2022-08-20T06:23:19;18.50;;;10.10;;
74492;SDS011;62978;51.094;-115.362;2022-08-20T06:26:14;13.70;;;9.10;;
74492;SDS011;62978;51.094;-115.362;2022-08-20T06:28:42;13.80;;;9.20;;
74492;SDS011;62978;51.094;-115.362;2022-08-20T06:31:12;13.50;;;9.70;;
74492;SDS011;62978;51.094;-115.362;2022-08-20T06:33:40;16.20;;;9.50;;
74492;SDS011;62978;51.094;-115.362;2022-08-20T06:36:13;13.90;;;9.50;;
74492;SDS011;62978;51.094;-115.362;2022-08-20T06:38:43;12.80;;;8.10;;
74492;SDS011;62978;51.094;-115.362;2022-08-20T06:41:20;12.20;;;8.10;;
74492;SDS011;62978;51.094;-115.362;2022-08-20T06:43:48;11.80;;;8.40;;
74492;SDS011;62978;51.094;-115.362;2022-08-20T06:46:27;12.30;;;9.10;;
74492;SDS011;62978;51.094;-115.362;2022-08-20T06:49:06;13.50;;;8.70;;
74492;SDS011;62978;51.094;-115.362;2022-08-20T06:51:37;13.90;;;9.20;;
74492;SDS011;62978;51.094;-115.362;2022-08-20T06:54:07;13.90;;;8.70;;
74492;SDS011;62978;51.094;-115.362;2022-08-20T06:56:38;13.20;;;8.90;;
74492;SDS011;62978;51.094;-115.362;2022-08-20T06:59:14;14.10;;;8.60;;
74492;SDS011;62978;51.094;-115.362;2022-08-20T07:01:42;14.30;;;8.90;;
74492;SDS011;62978;51.094;-115.362;2022-08-20T07:04:09;14.30;;;9.00;;
74492;SDS011;62978;51.094;-115.362;2022-08-20T07:07:16;11.10;;;8.20;;
74492;SDS011;62978;51.094;-115.362;2022-08-20T07:10:06;14.60;;;8.60;;
74492;SDS011;62978;51.094;-115.362;2022-08-20T07:12:42;15.20;;;9.20;;
74492;SDS011;62978;51.094;-115.362;2022-08-20T07:15:22;12.20;;;8.40;;
74492;SDS011;62978;51.094;-115.362;2022-08-20T07:17:59;13.40;;;9.20;;
74492;SDS011;62978;51.094;-115.362;2022-08-20T07:20:30;12.10;;;8.70;;
74492;SDS011;62978;51.094;-115.362;2022-08-20T07:23:14;12.30;;;8.80;;
74492;SDS011;62978;51.094;-115.362;2022-08-20T07:25:44;11.50;;;8.50;;
74492;SDS011;62978;51.094;-115.362;2022-08-20T07:34:11;16.30;;;9.00;;
74492;SDS011;62978;51.094;-115.362;2022-08-20T07:39:51;13.80;;;8.30;;
74492;SDS011;62978;51.094;-115.362;2022-08-20T07:42:34;14.60;;;9.60;;
74492;SDS011;62978;51.094;-115.362;2022-08-20T07:45:13;11.70;;;8.40;;
74492;SDS011;62978;51.094;-115.362;2022-08-20T07:48:07;13.40;;;8.90;;
74492;SDS011;62978;51.094;-115.362;2022-08-20T07:50:37;10.40;;;7.10;;
74492;SDS011;62978;51.094;-115.362;2022-08-20T07:53:15;12.80;;;9.10;;
74492;SDS011;62978;51.094;-115.362;2022-08-20T07:55:42;14.30;;;8.70;;
74492;SDS011;62978;51.094;-115.362;2022-08-20T07:58:12;11.80;;;8.40;;
74492;SDS011;62978;51.094;-115.362;2022-08-20T08:00:42;12.80;;;8.40;;
74492;SDS011;62978;51.094;-115.362;2022-08-20T08:03:13;13.20;;;8.70;;
74492;SDS011;62978;51.094;-115.362;2022-08-20T08:05:43;15.10;;;9.30;;
74492;SDS011;62978;51.094;-115.362;2022-08-20T08:08:20;11.80;;;8.80;;
74492;SDS011;62978;51.094;-115.362;2022-08-20T08:10:51;12.20;;;9.00;;
74492;SDS011;62978;51.094;-115.362;2022-08-20T08:13:23;13.00;;;8.10;;
74492;SDS011;62978;51.094;-115.362;2022-08-20T08:15:55;11.00;;;7.90;;
74492;SDS011;62978;51.094;-115.362;2022-08-20T08:18:33;13.00;;;8.70;;
74492;SDS011;62978;51.094;-115.362;2022-08-20T08:21:06;11.40;;;7.90;;
74492;SDS011;62978;51.094;-115.362;2022-08-20T08:23:41;12.30;;;8.20;;
74492;SDS011;62978;51.094;-115.362;2022-08-20T08:26:12;12.00;;;8.00;;
74492;SDS011;62978;51.094;-115.362;2022-08-20T08:28:43;13.50;;;8.20;;
74492;SDS011;62978;51.094;-115.362;2022-08-20T08:31:12;14.30;;;8.90;;
74492;SDS011;62978;51.094;-115.362;2022-08-20T08:33:40;14.60;;;8.40;;
74492;SDS011;62978;51.094;-115.362;2022-08-20T08:36:13;12.80;;;8.40;;
74492;SDS011;62978;51.094;-115.362;2022-08-20T08:38:43;12.40;;;8.40;;
74492;SDS011;62978;51.094;-115.362;2022-08-20T08:41:23;12.00;;;8.60;;
74492;SDS011;62978;51.094;-115.362;2022-08-20T08:44:13;11.70;;;8.40;;
74492;SDS011;62978;51.094;-115.362;2022-08-20T08:47:28;13.30;;;8.90;;
74492;SDS011;62978;51.094;-115.362;2022-08-20T08:50:03;13.60;;;10.30;;
74492;SDS011;62978;51.094;-115.362;2022-08-20T08:52:38;14.40;;;9.20;;
74492;SDS011;62978;51.094;-115.362;2022-08-20T08:55:14;11.70;;;8.30;;
74492;SDS011;62978;51.094;-115.362;2022-08-20T08:57:47;12.70;;;8.90;;
74492;SDS011;62978;51.094;-115.362;2022-08-20T09:00:20;11.90;;;8.50;;
74492;SDS011;62978;51.094;-115.362;2022-08-20T09:02:56;12.10;;;9.00;;
74492;SDS011;62978;51.094;-115.362;2022-08-20T09:05:53;14.00;;;9.20;;
74492;SDS011;62978;51.094;-115.362;2022-08-20T09:08:59;13.00;;;8.80;;
74492;SDS011;62978;51.094;-115.362;2022-08-20T09:11:45;12.70;;;9.10;;
74492;SDS011;62978;51.094;-115.362;2022-08-20T09:14:16;12.70;;;8.50;;
74492;SDS011;62978;51.094;-115.362;2022-08-20T09:16:44;13.40;;;9.10;;
74492;SDS011;62978;51.094;-115.362;2022-08-20T09:19:12;12.80;;;8.40;;
74492;SDS011;62978;51.094;-115.362;2022-08-20T09:21:42;13.20;;;9.00;;
74492;SDS011;62978;51.094;-115.362;2022-08-20T09:24:10;13.60;;;9.70;;
74492;SDS011;62978;51.094;-115.362;2022-08-20T09:26:37;12.70;;;9.20;;
74492;SDS011;62978;51.094;-115.362;2022-08-20T09:29:05;13.70;;;9.30;;
74492;SDS011;62978;51.094;-115.362;2022-08-20T09:31:33;12.60;;;9.20;;
74492;SDS011;62978;51.094;-115.362;2022-08-20T09:34:01;13.40;;;9.30;;
74492;SDS011;62978;51.094;-115.362;2022-08-20T09:36:32;13.60;;;9.10;;
74492;SDS011;62978;51.094;-115.362;2022-08-20T09:39:01;13.90;;;8.90;;
74492;SDS011;62978;51.094;-115.362;2022-08-20T09:41:30;10.90;;;8.80;;
74492;SDS011;62978;51.094;-115.362;2022-08-20T09:44:09;13.60;;;8.80;;
74492;SDS011;62978;51.094;-115.362;2022-08-20T09:46:37;15.20;;;9.40;;
74492;SDS011;62978;51.094;-115.362;2022-08-20T09:49:04;13.80;;;10.20;;
74492;SDS011;62978;51.094;-115.362;2022-08-20T09:51:32;14.30;;;9.80;;
74492;SDS011;62978;51.094;-115.362;2022-08-20T09:54:06;16.50;;;10.60;;
74492;SDS011;62978;51.094;-115.362;2022-08-20T09:56:39;13.70;;;9.60;;
74492;SDS011;62978;51.094;-115.362;2022-08-20T09:59:10;16.60;;;9.40;;
74492;SDS011;62978;51.094;-115.362;2022-08-20T10:01:40;14.00;;;9.80;;
74492;SDS011;62978;51.094;-115.362;2022-08-20T10:04:19;13.90;;;8.70;;
74492;SDS011;62978;51.094;-115.362;2022-08-20T10:07:08;11.70;;;9.20;;
74492;SDS011;62978;51.094;-115.362;2022-08-20T10:09:48;13.60;;;9.10;;
74492;SDS011;62978;51.094;-115.362;2022-08-20T10:12:24;11.30;;;8.50;;
74492;SDS011;62978;51.094;-115.362;2022-08-20T10:14:52;13.50;;;9.20;;
74492;SDS011;62978;51.094;-115.362;2022-08-20T10:17:24;12.80;;;8.40;;
74492;SDS011;62978;51.094;-115.362;2022-08-20T10:19:51;14.00;;;9.20;;
74492;SDS011;62978;51.094;-115.362;2022-08-20T10:22:19;12.10;;;8.30;;
74492;SDS011;62978;51.094;-115.362;2022-08-20T10:24:58;13.50;;;8.40;;
74492;SDS011;62978;51.094;-115.362;2022-08-20T10:30:18;12.10;;;8.90;;
74492;SDS011;62978;51.094;-115.362;2022-08-20T10:32:46;14.20;;;9.60;;
74492;SDS011;62978;51.094;-115.362;2022-08-20T10:35:26;16.20;;;9.60;;
74492;SDS011;62978;51.094;-115.362;2022-08-20T10:37:57;12.60;;;9.70;;
74492;SDS011;62978;51.094;-115.362;2022-08-20T10:40:28;13.10;;;8.90;;
74492;SDS011;62978;51.094;-115.362;2022-08-20T10:43:05;12.80;;;8.80;;
74492;SDS011;62978;51.094;-115.362;2022-08-20T10:45:35;12.30;;;8.20;;
74492;SDS011;62978;51.094;-115.362;2022-08-20T10:48:09;12.10;;;8.80;;
74492;SDS011;62978;51.094;-115.362;2022-08-20T10:53:25;11.20;;;8.30;;
74492;SDS011;62978;51.094;-115.362;2022-08-20T10:55:54;14.50;;;8.70;;
74492;SDS011;62978;51.094;-115.362;2022-08-20T10:58:40;13.40;;;8.70;;
74492;SDS011;62978;51.094;-115.362;2022-08-20T11:01:36;14.00;;;8.30;;
74492;SDS011;62978;51.094;-115.362;2022-08-20T11:04:10;12.30;;;7.80;;
74492;SDS011;62978;51.094;-115.362;2022-08-20T11:06:51;12.90;;;9.00;;
74492;SDS011;62978;51.094;-115.362;2022-08-20T11:09:39;11.80;;;7.90;;
74492;SDS011;62978;51.094;-115.362;2022-08-20T11:12:07;11.70;;;8.00;;
74492;SDS011;62978;51.094;-115.362;2022-08-20T11:14:37;11.40;;;8.20;;
74492;SDS011;62978;51.094;-115.362;2022-08-20T11:17:19;11.40;;;8.20;;
74492;SDS011;62978;51.094;-115.362;2022-08-20T11:26:24;13.10;;;8.30;;
74492;SDS011;62978;51.094;-115.362;2022-08-20T11:29:41;11.00;;;8.10;;
74492;SDS011;62978;51.094;-115.362;2022-08-20T11:32:42;12.70;;;8.20;;
74492;SDS011;62978;51.094;-115.362;2022-08-20T11:42:53;12.20;;;7.70;;
74492;SDS011;62978;51.094;-115.362;2022-08-20T11:45:58;12.60;;;8.00;;
74492;SDS011;62978;51.094;-115.362;2022-08-20T11:49:23;11.60;;;8.10;;
74492;SDS011;62978;51.094;-115.362;2022-08-20T11:52:03;11.90;;;8.50;;
74492;SDS011;62978;51.094;-115.362;2022-08-20T11:54:59;13.00;;;8.30;;
74492;SDS011;62978;51.094;-115.362;2022-08-20T11:58:08;14.70;;;9.20;;
74492;SDS011;62978;51.094;-115.362;2022-08-20T12:00:58;13.40;;;8.20;;
74492;SDS011;62978;51.094;-115.362;2022-08-20T12:03:47;14.20;;;8.90;;
74492;SDS011;62978;51.094;-115.362;2022-08-20T12:06:14;13.50;;;8.90;;
74492;SDS011;62978;51.094;-115.362;2022-08-20T12:09:09;12.30;;;8.30;;
74492;SDS011;62978;51.094;-115.362;2022-08-20T12:11:45;11.00;;;7.40;;
74492;SDS011;62978;51.094;-115.362;2022-08-20T12:14:25;12.20;;;7.50;;
74492;SDS011;62978;51.094;-115.362;2022-08-20T12:17:17;12.50;;;7.70;;
74492;SDS011;62978;51.094;-115.362;2022-08-20T12:22:54;12.90;;;7.90;;
74492;SDS011;62978;51.094;-115.362;2022-08-20T12:25:30;11.20;;;7.50;;
74492;SDS011;62978;51.094;-115.362;2022-08-20T12:28:48;11.80;;;7.40;;
74492;SDS011;62978;51.094;-115.362;2022-08-20T12:31:19;13.40;;;7.70;;
74492;SDS011;62978;51.094;-115.362;2022-08-20T12:34:25;12.60;;;8.20;;
74492;SDS011;62978;51.094;-115.362;2022-08-20T12:37:20;11.60;;;7.30;;
74492;SDS011;62978;51.094;-115.362;2022-08-20T12:39:59;11.90;;;7.40;;
74492;SDS011;62978;51.094;-115.362;2022-08-20T12:42:39;11.40;;;7.40;;
74492;SDS011;62978;51.094;-115.362;2022-08-20T12:45:07;11.50;;;8.10;;
74492;SDS011;62978;51.094;-115.362;2022-08-20T12:47:37;13.30;;;8.20;;
74492;SDS011;62978;51.094;-115.362;2022-08-20T12:50:18;12.20;;;7.80;;
74492;SDS011;62978;51.094;-115.362;2022-08-20T12:52:48;12.20;;;7.70;;
74492;SDS011;62978;51.094;-115.362;2022-08-20T12:55:20;11.20;;;7.60;;
74492;SDS011;62978;51.094;-115.362;2022-08-20T13:00:48;13.60;;;8.30;;
74492;SDS011;62978;51.094;-115.362;2022-08-20T13:03:16;11.70;;;7.90;;
74492;SDS011;62978;51.094;-115.362;2022-08-20T13:05:46;12.30;;;8.40;;
74492;SDS011;62978;51.094;-115.362;2022-08-20T13:08:48;10.80;;;7.60;;
74492;SDS011;62978;51.094;-115.362;2022-08-20T13:11:15;13.50;;;8.20;;
74492;SDS011;62978;51.094;-115.362;2022-08-20T13:13:47;13.50;;;8.50;;
74492;SDS011;62978;51.094;-115.362;2022-08-20T13:16:17;10.40;;;7.60;;
74492;SDS011;62978;51.094;-115.362;2022-08-20T13:18:47;12.00;;;8.00;;
74492;SDS011;62978;51.094;-115.362;2022-08-20T13:21:15;11.30;;;7.80;;
74492;SDS011;62978;51.094;-115.362;2022-08-20T13:23:51;13.30;;;9.00;;
74492;SDS011;62978;51.094;-115.362;2022-08-20T13:29:08;10.70;;;7.50;;
74492;SDS011;62978;51.094;-115.362;2022-08-20T13:31:36;14.60;;;7.80;;
74492;SDS011;62978;51.094;-115.362;2022-08-20T13:34:04;12.70;;;7.80;;
74492;SDS011;62978;51.094;-115.362;2022-08-20T13:36:31;12.70;;;7.50;;
74492;SDS011;62978;51.094;-115.362;2022-08-20T13:39:08;11.50;;;7.90;;
74492;SDS011;62978;51.094;-115.362;2022-08-20T13:41:39;12.80;;;7.90;;
74492;SDS011;62978;51.094;-115.362;2022-08-20T13:44:06;12.70;;;7.90;;
74492;SDS011;62978;51.094;-115.362;2022-08-20T13:46:35;12.30;;;8.00;;
74492;SDS011;62978;51.094;-115.362;2022-08-20T13:49:05;11.40;;;8.00;;
74492;SDS011;62978;51.094;-115.362;2022-08-20T13:51:36;14.30;;;7.90;;
74492;SDS011;62978;51.094;-115.362;2022-08-20T13:54:03;14.90;;;7.30;;
74492;SDS011;62978;51.094;-115.362;2022-08-20T13:56:34;13.30;;;7.80;;
74492;SDS011;62978;51.094;-115.362;2022-08-20T13:59:01;14.60;;;8.90;;
74492;SDS011;62978;51.094;-115.362;2022-08-20T14:01:28;15.00;;;8.20;;
74492;SDS011;62978;51.094;-115.362;2022-08-20T14:03:56;14.30;;;7.90;;
74492;SDS011;62978;51.094;-115.362;2022-08-20T14:06:44;16.70;;;8.50;;
74492;SDS011;62978;51.094;-115.362;2022-08-20T14:09:11;15.60;;;8.20;;
74492;SDS011;62978;51.094;-115.362;2022-08-20T14:11:38;13.30;;;8.10;;
74492;SDS011;62978;51.094;-115.362;2022-08-20T14:14:06;15.30;;;8.40;;
74492;SDS011;62978;51.094;-115.362;2022-08-20T14:16:33;15.40;;;9.30;;
74492;SDS011;62978;51.094;-115.362;2022-08-20T14:19:03;13.30;;;8.30;;
74492;SDS011;62978;51.094;-115.362;2022-08-20T14:21:33;12.10;;;8.20;;
74492;SDS011;62978;51.094;-115.362;2022-08-20T14:24:01;11.50;;;8.20;;
74492;SDS011;62978;51.094;-115.362;2022-08-20T14:26:29;13.10;;;8.30;;
74492;SDS011;62978;51.094;-115.362;2022-08-20T14:28:56;14.40;;;8.90;;
74492;SDS011;62978;51.094;-115.362;2022-08-20T14:34:14;12.00;;;7.90;;
74492;SDS011;62978;51.094;-115.362;2022-08-20T14:36:41;11.10;;;8.00;;
74492;SDS011;62978;51.094;-115.362;2022-08-20T14:39:14;11.70;;;8.00;;
74492;SDS011;62978;51.094;-115.362;2022-08-20T14:41:42;12.10;;;8.70;;
74492;SDS011;62978;51.094;-115.362;2022-08-20T14:44:21;13.70;;;8.20;;
74492;SDS011;62978;51.094;-115.362;2022-08-20T14:46:49;13.40;;;8.70;;
74492;SDS011;62978;51.094;-115.362;2022-08-20T14:49:16;13.10;;;9.10;;
74492;SDS011;62978;51.094;-115.362;2022-08-20T14:51:47;12.70;;;8.80;;
74492;SDS011;62978;51.094;-115.362;2022-08-20T14:54:14;15.40;;;8.10;;
74492;SDS011;62978;51.094;-115.362;2022-08-20T14:56:42;12.50;;;7.60;;
74492;SDS011;62978;51.094;-115.362;2022-08-20T14:59:12;16.40;;;7.10;;
74492;SDS011;62978;51.094;-115.362;2022-08-20T15:01:41;11.80;;;8.40;;
74492;SDS011;62978;51.094;-115.362;2022-08-20T15:04:17;11.70;;;8.20;;
74492;SDS011;62978;51.094;-115.362;2022-08-20T15:06:50;12.50;;;7.80;;
74492;SDS011;62978;51.094;-115.362;2022-08-20T15:12:34;12.90;;;8.10;;
74492;SDS011;62978;51.094;-115.362;2022-08-20T15:15:30;13.10;;;8.30;;
74492;SDS011;62978;51.094;-115.362;2022-08-20T15:18:05;11.50;;;7.90;;
74492;SDS011;62978;51.094;-115.362;2022-08-20T15:20:33;10.90;;;8.40;;
74492;SDS011;62978;51.094;-115.362;2022-08-20T15:23:03;10.50;;;6.60;;
74492;SDS011;62978;51.094;-115.362;2022-08-20T15:25:32;13.30;;;8.20;;
74492;SDS011;62978;51.094;-115.362;2022-08-20T15:28:01;12.00;;;8.10;;
74492;SDS011;62978;51.094;-115.362;2022-08-20T15:30:40;12.90;;;8.90;;
74492;SDS011;62978;51.094;-115.362;2022-08-20T15:33:10;11.20;;;7.40;;
74492;SDS011;62978;51.094;-115.362;2022-08-20T15:35:41;9.40;;;5.90;;
74492;SDS011;62978;51.094;-115.362;2022-08-20T15:38:09;13.20;;;8.50;;
74492;SDS011;62978;51.094;-115.362;2022-08-20T15:40:46;14.70;;;8.70;;
74492;SDS011;62978;51.094;-115.362;2022-08-20T15:43:14;12.30;;;7.00;;
74492;SDS011;62978;51.094;-115.362;2022-08-20T15:45:51;13.30;;;8.00;;
74492;SDS011;62978;51.094;-115.362;2022-08-20T15:48:21;12.70;;;7.30;;
74492;SDS011;62978;51.094;-115.362;2022-08-20T15:54:19;10.30;;;7.10;;
74492;SDS011;62978;51.094;-115.362;2022-08-20T16:06:38;9.70;;;6.10;;
74492;SDS011;62978;51.094;-115.362;2022-08-20T16:09:37;10.50;;;7.70;;
74492;SDS011;62978;51.094;-115.362;2022-08-20T16:12:23;11.20;;;7.10;;
74492;SDS011;62978;51.094;-115.362;2022-08-20T16:15:07;11.30;;;8.50;;
74492;SDS011;62978;51.094;-115.362;2022-08-20T16:17:47;12.20;;;7.60;;
74492;SDS011;62978;51.094;-115.362;2022-08-20T16:20:45;11.10;;;7.20;;
74492;SDS011;62978;51.094;-115.362;2022-08-20T16:23:19;11.90;;;7.70;;
74492;SDS011;62978;51.094;-115.362;2022-08-20T16:26:00;10.00;;;7.20;;
74492;SDS011;62978;51.094;-115.362;2022-08-20T16:28:54;11.10;;;7.70;;
74492;SDS011;62978;51.094;-115.362;2022-08-20T16:31:45;10.20;;;7.20;;
74492;SDS011;62978;51.094;-115.362;2022-08-20T16:34:57;11.50;;;7.80;;
74492;SDS011;62978;51.094;-115.362;2022-08-20T16:40:39;11.50;;;8.20;;
74492;SDS011;62978;51.094;-115.362;2022-08-20T16:43:31;10.90;;;7.70;;
74492;SDS011;62978;51.094;-115.362;2022-08-20T16:46:20;11.10;;;8.10;;
74492;SDS011;62978;51.094;-115.362;2022-08-20T16:48:58;12.20;;;7.90;;
74492;SDS011;62978;51.094;-115.362;2022-08-20T16:51:44;12.60;;;8.10;;
74492;SDS011;62978;51.094;-115.362;2022-08-20T16:54:17;10.10;;;6.90;;
74492;SDS011;62978;51.094;-115.362;2022-08-20T16:56:55;11.20;;;7.90;;
74492;SDS011;62978;51.094;-115.362;2022-08-20T16:59:26;11.50;;;7.00;;
74492;SDS011;62978;51.094;-115.362;2022-08-20T17:02:06;9.10;;;6.10;;
74492;SDS011;62978;51.094;-115.362;2022-08-20T17:04:45;10.90;;;7.90;;
74492;SDS011;62978;51.094;-115.362;2022-08-20T17:07:27;10.20;;;6.80;;
74492;SDS011;62978;51.094;-115.362;2022-08-20T17:10:21;10.50;;;7.60;;
74492;SDS011;62978;51.094;-115.362;2022-08-20T17:13:39;10.60;;;7.30;;